Time;durP1;ratioP1;P1;durP2;ratioP2;P2;SDS_P1;SDS_P2;PMS_P1;PMS_P2;Temp;Humidity;BMP_temperature;BMP_pressure;BME280_temperature;BME280_humidity;BME280_pressure;Samples;Min_cycle;Max_cycle;Signal;HPM_P1;HPM_P2
2023/11/28 00:00:00;;;;;;;;;;;8.50;99.90;;;7.58;100.00;100308.19;4148155;28;19909;-75
2023/11/28 00:02:01;;;;;;;;;;;8.40;99.90;;;7.56;100.00;100305.72;4168134;28;19951;-75
2023/11/28 00:04:02;;;;;;;;;;;8.30;99.90;;;7.61;100.00;100311.38;4164802;28;19916;-75
2023/11/28 00:06:03;;;;;;;;;;;8.40;99.90;;;7.54;100.00;100312.91;4152796;28;19909;-75
2023/11/28 00:08:04;;;;;;;;;;;8.30;99.90;;;7.49;100.00;100312.53;4151907;28;19917;-75
2023/11/28 00:10:05;;;;;;;;;;;8.30;99.90;;;7.53;100.00;100318.28;4152450;28;19909;-75
2023/11/28 00:12:06;;;;;;;;;;;8.30;99.90;;;7.48;100.00;100304.78;4168508;28;19909;-74
2023/11/28 00:14:07;;;;;;;;;;;8.30;99.90;;;7.54;100.00;100306.84;4169668;28;20339;-75
2023/11/28 00:16:08;;;;;;;;;;;8.20;99.90;;;7.50;100.00;100301.06;4169183;28;19913;-74
2023/11/28 00:18:08;;;;;;;;;;;8.30;99.90;;;7.47;100.00;100290.84;4169701;28;20296;-74
2023/11/28 00:20:10;;;;;;;;;;;8.30;99.90;;;7.39;100.00;100293.38;4135038;28;19916;-74
2023/11/28 00:22:11;;;;;;;;;;;8.20;99.90;;;7.37;100.00;100289.25;4152699;28;19929;-75
2023/11/28 00:24:11;;;;;;;;;;;8.10;99.90;;;7.37;100.00;100294.50;4157586;28;20313;-74
2023/11/28 00:26:14;;;;;;;;;;;8.10;99.90;;;7.32;100.00;100292.31;4169639;28;19915;-74
2023/11/28 00:28:14;;;;;;;;;;;8.10;99.90;;;7.32;100.00;100292.31;4168246;28;19920;-74
2023/11/28 00:30:16;;;;;;;;;;;8.10;99.90;;;7.39;100.00;100297.81;4156796;28;19909;-74
2023/11/28 00:32:17;;;;;;;;;;;8.10;99.90;;;7.42;100.00;100305.38;4152025;28;19916;-74
2023/11/28 00:34:17;;;;;;;;;;;8.10;99.90;;;7.28;100.00;100298.00;4152916;28;19987;-74
2023/11/28 00:36:19;;;;;;;;;;;8.10;99.90;;;7.27;100.00;100299.81;4153069;28;19909;-74
2023/11/28 00:38:20;;;;;;;;;;;8.10;99.90;;;7.25;100.00;100307.00;4153039;28;19910;-74
2023/11/28 00:40:22;;;;;;;;;;;8.00;99.90;;;7.17;100.00;100305.09;4143278;28;19916;-75
2023/11/28 00:42:23;;;;;;;;;;;8.00;99.90;;;7.15;100.00;100308.81;4169336;28;19916;-75
2023/11/28 00:44:24;;;;;;;;;;;7.90;99.90;;;7.01;100.00;100317.16;4169340;28;20269;-75
2023/11/28 00:46:24;;;;;;;;;;;7.90;99.90;;;7.02;100.00;100318.81;4167897;28;19980;-74
2023/11/28 00:48:25;;;;;;;;;;;7.90;99.90;;;7.03;100.00;100317.84;4169053;28;19913;-74
2023/11/28 00:50:26;;;;;;;;;;;7.80;99.90;;;7.16;100.00;100321.81;4155286;28;19915;-74
2023/11/28 00:52:27;;;;;;;;;;;7.90;99.90;;;7.15;100.00;100325.41;4152241;28;19910;-75
2023/11/28 00:54:27;;;;;;;;;;;7.90;99.90;;;7.13;100.00;100334.38;4152924;28;19936;-74
2023/11/28 00:56:28;;;;;;;;;;;7.90;99.90;;;7.11;100.00;100320.56;4152629;28;19909;-74
2023/11/28 00:58:29;;;;;;;;;;;7.90;99.90;;;7.00;100.00;100341.72;4152854;28;19910;-74
2023/11/28 01:00:30;;;;;;;;;;;7.80;99.90;;;6.97;100.00;100342.84;4152571;28;19931;-74
2023/11/28 01:02:30;;;;;;;;;;;7.80;99.90;;;6.98;100.00;100334.03;4151383;28;19910;-74
2023/11/28 01:04:32;;;;;;;;;;;7.80;99.90;;;6.92;100.00;100333.75;4168761;28;20284;-75
2023/11/28 01:06:33;;;;;;;;;;;7.80;99.90;;;6.89;100.00;100342.75;4167964;28;19909;-74
2023/11/28 01:08:34;;;;;;;;;;;7.70;99.90;;;6.82;100.00;100346.06;4169240;28;19935;-74
2023/11/28 01:10:35;;;;;;;;;;;7.70;99.90;;;6.86;100.00;100350.06;4153167;28;19909;-74
2023/11/28 01:12:36;;;;;;;;;;;7.70;99.90;;;6.87;100.00;100349.91;4152640;28;19916;-74
2023/11/28 01:14:36;;;;;;;;;;;7.70;99.90;;;6.89;100.00;100348.00;4152815;28;19909;-74
2023/11/28 01:16:37;;;;;;;;;;;7.70;99.90;;;6.82;100.00;100351.31;4152850;28;20380;-74
2023/11/28 01:18:38;;;;;;;;;;;7.70;99.90;;;6.84;100.00;100350.19;4152740;28;20365;-74
2023/11/28 01:20:41;;;;;;;;;;;7.70;99.90;;;6.85;100.00;100357.09;4161386;28;19956;-74
2023/11/28 01:22:41;;;;;;;;;;;7.70;99.90;;;6.92;100.00;100350.31;4168901;28;20368;-74
2023/11/28 01:24:42;;;;;;;;;;;7.70;99.90;;;7.02;100.00;100348.47;4167864;28;19935;-74
2023/11/28 01:26:43;;;;;;;;;;;7.80;99.90;;;7.07;100.00;100355.94;4167653;28;19951;-74
2023/11/28 01:28:43;;;;;;;;;;;7.80;99.90;;;7.04;100.00;100356.22;4167631;28;19913;-74
2023/11/28 01:30:44;;;;;;;;;;;7.80;99.90;;;7.06;100.00;100362.13;4153247;28;19916;-74
2023/11/28 01:32:45;;;;;;;;;;;7.90;99.90;;;7.05;100.00;100363.09;4152813;28;19932;-74
2023/11/28 01:34:46;;;;;;;;;;;7.90;99.90;;;7.09;100.00;100370.56;4151038;28;19909;-74
2023/11/28 01:36:47;;;;;;;;;;;7.90;99.90;;;7.14;100.00;100370.94;4151787;28;19909;-74
2023/11/28 01:38:47;;;;;;;;;;;7.90;99.90;;;7.19;100.00;100381.03;4152416;28;19921;-74
2023/11/28 01:40:50;;;;;;;;;;;7.90;99.90;;;7.18;100.00;100387.22;4146543;28;20296;-74
2023/11/28 01:42:50;;;;;;;;;;;7.90;99.90;;;7.26;100.00;100381.28;4169091;28;19909;-75
2023/11/28 01:44:51;;;;;;;;;;;8.00;99.90;;;7.24;100.00;100381.41;4174735;28;19920;-74
2023/11/28 01:46:53;;;;;;;;;;;8.00;99.90;;;7.25;100.00;100390.94;4170789;28;19913;-74
2023/11/28 01:48:54;;;;;;;;;;;8.10;99.90;;;7.24;100.00;100381.41;4188096;28;19999;-74
2023/11/28 01:50:55;;;;;;;;;;;8.00;99.90;;;7.24;100.00;100378.78;4154470;28;19957;-75
2023/11/28 01:52:55;;;;;;;;;;;8.10;99.90;;;7.24;100.00;100384.03;4153710;28;20364;-75
2023/11/28 01:54:57;;;;;;;;;;;8.10;99.90;;;7.29;100.00;100401.97;4170592;28;19990;-75
2023/11/28 01:56:58;;;;;;;;;;;8.10;99.90;;;7.22;100.00;100388.59;4172077;28;19932;-74
2023/11/28 01:58:59;;;;;;;;;;;8.10;99.90;;;7.19;100.00;100391.50;4153643;28;20431;-74
2023/11/28 02:01:00;;;;;;;;;;;8.00;99.90;;;7.16;100.00;100399.66;4149333;28;19913;-74
2023/11/28 02:03:01;;;;;;;;;;;8.00;99.90;;;7.08;100.00;100394.28;4171500;28;19913;-74
2023/11/28 02:05:02;;;;;;;;;;;8.00;99.90;;;7.03;100.00;100399.97;4153822;28;19916;-74
2023/11/28 02:07:03;;;;;;;;;;;7.90;99.90;;;6.99;100.00;100400.41;4171753;28;19916;-74
2023/11/28 02:09:04;;;;;;;;;;;7.80;99.90;;;6.90;100.00;100412.53;4169117;28;20388;-74
2023/11/28 02:11:05;;;;;;;;;;;7.80;99.90;;;6.97;100.00;100413.66;4169233;28;19915;-74
2023/11/28 02:13:06;;;;;;;;;;;7.70;99.90;;;6.84;100.00;100407.84;4170524;28;20009;-74
2023/11/28 02:15:08;;;;;;;;;;;7.70;99.90;;;6.81;100.00;100412.59;4170302;28;20335;-74
2023/11/28 02:17:08;;;;;;;;;;;7.70;99.90;;;6.71;100.00;100412.59;4171039;28;20354;-74
2023/11/28 02:19:09;;;;;;;;;;;7.60;99.90;;;6.55;100.00;100414.94;4171237;28;19909;-74
2023/11/28 02:21:11;;;;;;;;;;;7.50;99.90;;;6.44;100.00;100418.53;4170378;28;19909;-74
2023/11/28 02:23:12;;;;;;;;;;;7.40;99.90;;;6.45;100.00;100427.22;4137649;28;19914;-74
2023/11/28 02:25:12;;;;;;;;;;;7.30;99.90;;;6.43;100.00;100418.66;4171383;28;19971;-74
2023/11/28 02:27:13;;;;;;;;;;;7.30;99.90;;;6.51;100.00;100437.94;4170148;28;19909;-74
2023/11/28 02:29:14;;;;;;;;;;;7.30;99.90;;;6.54;100.00;100432.44;4171294;28;19921;-74
2023/11/28 02:31:15;;;;;;;;;;;7.30;99.90;;;6.50;100.00;100435.47;4171566;28;19909;-74
2023/11/28 02:33:16;;;;;;;;;;;7.30;99.90;;;6.38;100.00;100426.09;4170086;28;19909;-74
2023/11/28 02:35:17;;;;;;;;;;;7.30;99.90;;;6.32;100.00;100439.75;4153386;28;19913;-74
2023/11/28 02:37:18;;;;;;;;;;;7.20;99.90;;;6.17;100.00;100439.31;4166124;28;19912;-74
2023/11/28 02:39:19;;;;;;;;;;;7.10;99.90;;;6.12;100.00;100444.94;4171415;28;19909;-74
2023/11/28 02:41:19;;;;;;;;;;;7.00;99.90;;;6.12;100.00;100436.28;4171313;28;19943;-74
2023/11/28 02:43:20;;;;;;;;;;;7.00;99.90;;;6.03;100.00;100443.13;4169897;28;19909;-74
2023/11/28 02:45:21;;;;;;;;;;;6.90;99.90;;;6.14;100.00;100444.81;4170855;28;19924;-74
2023/11/28 02:47:22;;;;;;;;;;;6.90;99.90;;;6.06;100.00;100444.66;4175161;28;20338;-74
2023/11/28 02:49:22;;;;;;;;;;;6.90;99.90;;;5.98;100.00;100437.47;4169575;28;19913;-74
2023/11/28 02:51:23;;;;;;;;;;;6.90;99.90;;;5.90;100.00;100436.47;4169103;28;20399;-74
2023/11/28 02:53:25;;;;;;;;;;;6.80;99.90;;;5.88;100.00;100443.66;4186314;28;20415;-74
2023/11/28 02:55:26;;;;;;;;;;;6.70;99.90;;;5.84;100.00;100434.38;4186366;28;19909;-74
2023/11/28 02:57:26;;;;;;;;;;;6.70;99.90;;;5.75;100.00;100432.53;4161082;28;19915;-74
2023/11/28 02:59:27;;;;;;;;;;;6.70;99.90;;;5.73;100.00;100445.78;4153273;28;19914;-74
2023/11/28 03:01:28;;;;;;;;;;;6.60;99.90;;;5.66;100.00;100439.41;4170610;28;19913;-74
2023/11/28 03:03:29;;;;;;;;;;;6.60;99.90;;;5.66;100.00;100438.56;4169525;28;19909;-76
2023/11/28 03:05:31;;;;;;;;;;;6.60;99.90;;;5.57;100.00;100446.25;4152947;28;19909;-74
2023/11/28 03:07:32;;;;;;;;;;;6.50;99.90;;;5.52;100.00;100448.44;4181660;28;19927;-74
2023/11/28 03:09:32;;;;;;;;;;;6.50;99.90;;;5.45;100.00;100443.84;4187000;28;20334;-74
2023/11/28 03:11:33;;;;;;;;;;;6.40;99.90;;;5.55;100.00;100445.53;4187294;28;19909;-74
2023/11/28 03:13:34;;;;;;;;;;;6.40;99.90;;;5.53;100.00;100457.94;4169729;28;19909;-74
2023/11/28 03:15:35;;;;;;;;;;;6.40;99.90;;;5.46;100.00;100453.38;4152917;28;19915;-74
2023/11/28 03:17:35;;;;;;;;;;;6.40;99.90;;;5.40;100.00;100451.28;4169316;28;19909;-74
2023/11/28 03:19:36;;;;;;;;;;;6.30;99.90;;;5.36;100.00;100457.72;4169271;28;19909;-74
2023/11/28 03:21:39;;;;;;;;;;;6.30;99.90;;;5.32;100.00;100457.13;4185949;28;19909;-74
2023/11/28 03:23:40;;;;;;;;;;;6.20;99.90;;;5.32;100.00;100457.13;4186993;28;19915;-74
2023/11/28 03:25:41;;;;;;;;;;;6.20;99.90;;;5.24;100.00;100459.56;4152754;28;19991;-74
2023/11/28 03:27:41;;;;;;;;;;;6.20;99.90;;;5.21;100.00;100459.00;4187192;28;19931;-74
2023/11/28 03:29:42;;;;;;;;;;;6.10;99.90;;;5.32;100.00;100451.91;4186847;28;20330;-74
2023/11/28 03:31:43;;;;;;;;;;;6.20;99.90;;;5.30;100.00;100458.22;4186860;28;19983;-74
2023/11/28 03:33:43;;;;;;;;;;;6.20;99.90;;;5.32;100.00;100451.06;4168795;28;19971;-74
2023/11/28 03:35:44;;;;;;;;;;;6.20;99.90;;;5.28;100.00;100452.31;4169167;28;19908;-74
2023/11/28 03:37:46;;;;;;;;;;;6.20;99.90;;;5.19;100.00;100455.69;4186825;28;19909;-74
2023/11/28 03:39:47;;;;;;;;;;;6.10;99.90;;;5.12;100.00;100455.38;4153176;28;19973;-74
2023/11/28 03:41:48;;;;;;;;;;;6.10;99.90;;;5.11;100.00;100458.94;4169030;28;19919;-74
2023/11/28 03:43:49;;;;;;;;;;;6.00;99.90;;;5.13;100.00;100464.03;4152654;28;19924;-74
2023/11/28 03:45:50;;;;;;;;;;;6.00;99.90;;;5.11;100.00;100468.59;4168758;28;19917;-74
2023/11/28 03:47:50;;;;;;;;;;;6.00;99.90;;;5.10;100.00;100483.44;4152577;28;19913;-74
2023/11/28 03:49:51;;;;;;;;;;;6.00;99.90;;;5.16;100.00;100471.63;4169808;28;19913;-74
2023/11/28 03:51:52;;;;;;;;;;;6.00;99.90;;;5.28;100.00;100479.28;4168132;28;19909;-74
2023/11/28 03:53:53;;;;;;;;;;;6.00;99.90;;;5.33;100.00;100484.13;4170087;28;20047;-74
2023/11/28 03:55:53;;;;;;;;;;;6.10;99.90;;;5.34;100.00;100483.16;4170021;28;20285;-74
2023/11/28 03:57:54;;;;;;;;;;;6.10;99.90;;;5.30;100.00;100476.53;4169892;28;20287;-74
2023/11/28 03:59:55;;;;;;;;;;;6.20;99.90;;;5.22;100.00;100482.41;4152317;28;19931;-74
2023/11/28 04:01:55;;;;;;;;;;;6.10;99.90;;;5.16;100.00;100472.47;4152288;28;19983;-74
2023/11/28 04:03:56;;;;;;;;;;;6.10;99.90;;;5.12;100.00;100478.06;4169638;28;19909;-74
2023/11/28 04:05:57;;;;;;;;;;;6.00;99.90;;;5.04;100.00;100478.72;4151928;28;19910;-74
2023/11/28 04:07:58;;;;;;;;;;;6.00;99.90;;;5.11;100.00;100485.06;4152108;28;19914;-74
2023/11/28 04:09:59;;;;;;;;;;;6.00;99.90;;;5.13;100.00;100483.19;4169823;28;19915;-74
2023/11/28 04:11:59;;;;;;;;;;;6.00;99.90;;;5.17;100.00;100478.53;4152150;28;20376;-74
2023/11/28 04:14:00;;;;;;;;;;;6.00;99.90;;;5.32;100.00;100485.06;4169700;28;19908;-74
2023/11/28 04:16:01;;;;;;;;;;;6.10;99.90;;;5.45;100.00;100477.84;4169562;28;19909;-74
2023/11/28 04:18:01;;;;;;;;;;;6.20;99.90;;;5.62;100.00;100490.31;4168544;28;19916;-74
2023/11/28 04:20:03;;;;;;;;;;;6.30;99.90;;;5.66;100.00;100475.19;4167447;28;20281;-74
2023/11/28 04:22:03;;;;;;;;;;;6.40;99.90;;;5.71;100.00;100479.09;4146525;28;19910;-74
2023/11/28 04:24:04;;;;;;;;;;;6.50;99.90;;;5.76;100.00;100481.31;4169475;28;19932;-74
2023/11/28 04:26:06;;;;;;;;;;;6.50;99.90;;;5.74;100.00;100478.81;4169737;28;19927;-74
2023/11/28 04:28:07;;;;;;;;;;;6.60;99.90;;;5.70;100.00;100493.16;4169493;28;19915;-74
2023/11/28 04:30:08;;;;;;;;;;;6.60;99.90;;;5.72;100.00;100485.97;4169512;28;19912;-74
2023/11/28 04:32:09;;;;;;;;;;;6.50;99.90;;;5.67;100.00;100488.16;4169365;28;19962;-74
2023/11/28 04:34:10;;;;;;;;;;;6.50;99.90;;;5.57;100.00;100484.66;4169512;28;19931;-74
2023/11/28 04:36:12;;;;;;;;;;;6.50;99.90;;;5.50;100.00;100486.97;4168307;28;19908;-74
2023/11/28 04:38:13;;;;;;;;;;;6.40;99.90;;;5.45;100.00;100486.53;4152057;28;20008;-74
2023/11/28 04:40:14;;;;;;;;;;;6.30;99.90;;;5.34;100.00;100491.84;4168470;28;19970;-74
2023/11/28 04:42:15;;;;;;;;;;;6.30;99.90;;;5.27;100.00;100495.94;4151890;28;19922;-74
2023/11/28 04:44:15;;;;;;;;;;;6.20;99.90;;;5.15;100.00;100491.72;4168209;28;19919;-74
2023/11/28 04:46:16;;;;;;;;;;;6.20;99.90;;;5.14;100.00;100500.50;4151567;28;19924;-74
2023/11/28 04:48:17;;;;;;;;;;;6.10;99.90;;;5.06;100.00;100496.88;4169137;28;19917;-74
2023/11/28 04:50:18;;;;;;;;;;;6.00;99.90;;;4.96;100.00;100502.03;4151446;28;20007;-74
2023/11/28 04:52:18;;;;;;;;;;;6.00;99.90;;;4.88;100.00;100504.44;4168669;28;19917;-74
2023/11/28 04:54:20;;;;;;;;;;;5.90;99.90;;;4.80;100.00;100510.31;4169251;28;20398;-74
2023/11/28 04:56:21;;;;;;;;;;;5.80;99.90;;;4.71;100.00;100500.59;4162580;28;19909;-74
2023/11/28 04:58:21;;;;;;;;;;;5.70;99.90;;;4.68;100.00;100502.63;4169056;28;19908;-74
2023/11/28 05:00:22;;;;;;;;;;;5.70;99.90;;;4.65;100.00;100505.50;4168210;28;19915;-74
2023/11/28 05:02:23;;;;;;;;;;;5.60;99.90;;;4.60;100.00;100498.00;4168747;28;19909;-74
2023/11/28 05:04:24;;;;;;;;;;;5.50;99.90;;;4.56;100.00;100503.63;4168817;28;19916;-74
2023/11/28 05:06:25;;;;;;;;;;;5.40;99.90;;;4.47;100.00;100505.19;4169140;28;19909;-74
2023/11/28 05:08:25;;;;;;;;;;;5.40;99.90;;;4.38;100.00;100498.94;4169064;28;19919;-74
2023/11/28 05:10:26;;;;;;;;;;;5.30;99.90;;;4.32;100.00;100502.03;4169122;28;19916;-74
2023/11/28 05:12:29;;;;;;;;;;;5.20;99.90;;;4.29;100.00;100512.72;4167827;28;19983;-74
2023/11/28 05:14:30;;;;;;;;;;;5.20;99.90;;;4.26;100.00;100512.94;4151399;28;19909;-74
2023/11/28 05:16:31;;;;;;;;;;;5.10;99.90;;;4.33;100.00;100518.53;4169117;28;20261;-74
2023/11/28 05:18:31;;;;;;;;;;;5.10;99.90;;;4.32;100.00;100522.91;4170334;28;19909;-74
2023/11/28 05:20:32;;;;;;;;;;;5.20;99.90;;;4.32;100.00;100515.09;4171157;28;19915;-74
2023/11/28 05:22:33;;;;;;;;;;;5.20;99.90;;;4.27;100.00;100524.22;4172249;28;19916;-74
2023/11/28 05:24:34;;;;;;;;;;;5.20;99.90;;;4.17;100.00;100512.84;4171309;28;19909;-74
2023/11/28 05:26:35;;;;;;;;;;;5.10;99.90;;;4.09;100.00;100521.25;4172419;28;19915;-74
2023/11/28 05:28:35;;;;;;;;;;;5.00;99.90;;;4.04;100.00;100515.56;4172298;28;19913;-74
2023/11/28 05:30:36;;;;;;;;;;;5.00;99.90;;;3.98;100.00;100510.84;4171026;28;19909;-74
2023/11/28 05:32:37;;;;;;;;;;;4.90;99.90;;;3.98;100.00;100513.44;4172338;28;19909;-74
2023/11/28 05:34:38;;;;;;;;;;;4.90;99.90;;;3.96;100.00;100520.56;4170922;28;20015;-74
2023/11/28 05:36:38;;;;;;;;;;;4.90;99.90;;;3.91;100.00;100522.72;4138199;28;19925;-74
2023/11/28 05:38:39;;;;;;;;;;;4.80;99.90;;;3.83;100.00;100519.84;4160866;28;19913;-74
2023/11/28 05:40:40;;;;;;;;;;;4.70;99.90;;;3.78;100.00;100522.00;4172201;28;20284;-74
2023/11/28 05:42:41;;;;;;;;;;;4.70;99.90;;;3.79;100.00;100528.88;4172172;28;19909;-74
2023/11/28 05:44:41;;;;;;;;;;;4.70;99.90;;;3.74;100.00;100529.22;4170667;28;19912;-74
2023/11/28 05:46:42;;;;;;;;;;;4.60;99.90;;;3.72;100.00;100527.69;4154328;28;19909;-74
2023/11/28 05:48:43;;;;;;;;;;;4.60;99.90;;;3.69;100.00;100533.97;4171875;28;19913;-74
2023/11/28 05:50:45;;;;;;;;;;;4.60;99.90;;;3.64;100.00;100530.88;4172084;28;19943;-74
2023/11/28 05:52:46;;;;;;;;;;;4.60;99.90;;;3.61;100.00;100545.94;4171322;28;19909;-74
2023/11/28 05:54:46;;;;;;;;;;;4.50;99.90;;;3.56;100.00;100554.09;4171955;28;19909;-74
2023/11/28 05:56:47;;;;;;;;;;;4.50;99.90;;;3.50;100.00;100545.91;4171853;28;19915;-74
2023/11/28 05:58:48;;;;;;;;;;;4.50;99.90;;;3.45;100.00;100538.44;4171880;28;19913;-74
2023/11/28 06:00:49;;;;;;;;;;;4.40;99.90;;;3.46;100.00;100545.31;4171862;28;19909;-74
2023/11/28 06:02:50;;;;;;;;;;;4.30;99.90;;;3.46;100.00;100552.31;4171654;28;19916;-74
2023/11/28 06:04:51;;;;;;;;;;;4.40;99.90;;;3.44;100.00;100555.00;4171551;28;19909;-74
2023/11/28 06:06:51;;;;;;;;;;;4.30;99.90;;;3.41;100.00;100550.03;4171804;28;19909;-74
2023/11/28 06:08:52;;;;;;;;;;;4.30;99.90;;;3.37;100.00;100543.41;4170454;28;19950;-74
2023/11/28 06:10:53;;;;;;;;;;;4.30;99.90;;;3.46;100.00;100553.16;4171664;28;20372;-74
2023/11/28 06:12:54;;;;;;;;;;;4.30;99.90;;;3.57;100.00;100563.59;4172234;28;20292;-74
2023/11/28 06:14:54;;;;;;;;;;;4.40;99.90;;;3.65;100.00;100563.84;4188228;28;19909;-74
2023/11/28 06:16:55;;;;;;;;;;;4.50;99.90;;;3.69;100.00;100552.22;4188089;28;19916;-74
2023/11/28 06:18:56;;;;;;;;;;;4.50;99.90;;;3.78;100.00;100554.13;4187819;28;19915;-74
2023/11/28 06:20:57;;;;;;;;;;;4.60;99.90;;;3.86;100.00;100556.97;4188000;28;20269;-74
2023/11/28 06:22:58;;;;;;;;;;;4.70;99.90;;;3.91;100.00;100564.47;4170381;28;19974;-74
2023/11/28 06:24:58;;;;;;;;;;;4.80;99.90;;;3.89;100.00;100567.19;4170267;28;19912;-74
2023/11/28 06:26:59;;;;;;;;;;;4.80;99.90;;;3.89;100.00;100569.78;4166857;28;19919;-74
2023/11/28 06:29:00;;;;;;;;;;;4.80;99.90;;;3.92;100.00;100561.72;4187575;28;19916;-74
2023/11/28 06:31:01;;;;;;;;;;;4.80;99.90;;;3.90;100.00;100573.25;4170403;28;19939;-74
2023/11/28 06:33:01;;;;;;;;;;;4.80;99.90;;;3.86;100.00;100571.78;4170351;28;19915;-74
2023/11/28 06:35:02;;;;;;;;;;;4.80;99.90;;;3.80;100.00;100572.25;4187579;28;19908;-74
2023/11/28 06:37:03;;;;;;;;;;;4.80;99.90;;;3.80;100.00;100574.88;4187853;28;19909;-74
2023/11/28 06:39:04;;;;;;;;;;;4.80;99.90;;;3.78;100.00;100576.78;4187806;28;19908;-74
2023/11/28 06:41:05;;;;;;;;;;;4.80;99.90;;;3.78;100.00;100582.84;4170092;28;19909;-75
2023/11/28 06:43:06;;;;;;;;;;;4.70;99.90;;;3.76;100.00;100592.53;4169869;28;20257;-75
2023/11/28 06:45:07;;;;;;;;;;;4.70;99.90;;;3.77;100.00;100588.16;4169673;28;19939;-74
2023/11/28 06:47:08;;;;;;;;;;;4.70;99.90;;;3.80;100.00;100587.91;4187543;28;19912;-74
2023/11/28 06:49:08;;;;;;;;;;;4.70;99.90;;;3.87;100.00;100581.28;4187487;28;19927;-74
2023/11/28 06:51:09;;;;;;;;;;;4.80;99.90;;;3.86;100.00;100577.00;4164983;28;19917;-73
2023/11/28 06:53:10;;;;;;;;;;;4.80;99.90;;;3.86;100.00;100584.84;4174276;28;19913;-74
2023/11/28 06:55:10;;;;;;;;;;;4.80;99.90;;;3.86;100.00;100592.66;4171054;28;19915;-74
2023/11/28 06:57:11;;;;;;;;;;;4.80;99.90;;;3.87;100.00;100587.34;4153288;28;19909;-73
2023/11/28 06:59:12;;;;;;;;;;;4.80;99.90;;;3.89;100.00;100576.78;4171015;28;19909;-74
2023/11/28 07:01:12;;;;;;;;;;;4.80;99.90;;;3.91;100.00;100572.28;4169643;28;19909;-73
2023/11/28 07:03:13;;;;;;;;;;;4.80;99.90;;;3.85;100.00;100564.94;4165877;28;19909;-73
2023/11/28 07:05:14;;;;;;;;;;;4.80;99.90;;;3.79;100.00;100562.81;4169508;28;19915;-74
2023/11/28 07:07:15;;;;;;;;;;;4.70;99.90;;;3.75;100.00;100575.25;4187493;28;19944;-73
2023/11/28 07:09:16;;;;;;;;;;;4.70;99.90;;;3.68;100.00;100567.97;4187114;28;19920;-73
2023/11/28 07:11:21;;;;;;;;;;;4.70;99.90;;;3.68;100.00;100573.19;4169576;28;19909;-73
2023/11/28 07:13:21;;;;;;;;;;;4.60;99.90;;;3.72;100.00;100572.03;4158186;28;19909;-73
2023/11/28 07:15:22;;;;;;;;;;;4.60;99.90;;;3.77;100.00;100573.34;4170647;28;19915;-75
2023/11/28 07:17:23;;;;;;;;;;;4.60;99.90;;;3.76;100.00;100576.06;4170553;28;19913;-74
2023/11/28 07:19:24;;;;;;;;;;;4.60;99.90;;;3.71;100.00;100583.41;4170564;28;20311;-74
2023/11/28 07:21:25;;;;;;;;;;;4.70;99.90;;;3.68;100.00;100584.47;4169454;28;19909;-76
2023/11/28 07:23:26;;;;;;;;;;;4.60;99.90;;;3.62;100.00;100584.09;4177051;28;19915;-76
2023/11/28 07:25:27;;;;;;;;;;;4.60;99.90;;;3.59;100.00;100592.97;4150194;28;19909;-76
2023/11/28 07:27:28;;;;;;;;;;;4.50;99.90;;;3.55;100.00;100595.94;4171956;28;19940;-76
2023/11/28 07:29:29;;;;;;;;;;;4.50;99.90;;;3.53;100.00;100590.00;4169217;28;19917;-76
2023/11/28 07:31:30;;;;;;;;;;;4.50;99.90;;;3.52;100.00;100606.59;4170420;28;19916;-76
2023/11/28 07:33:31;;;;;;;;;;;4.50;99.90;;;3.48;100.00;100599.94;4182694;28;19909;-77
2023/11/28 07:35:31;;;;;;;;;;;4.40;99.90;;;3.44;100.00;100603.72;4186881;28;19916;-77
2023/11/28 07:37:32;;;;;;;;;;;4.40;99.90;;;3.44;100.00;100616.75;4152712;28;19910;-77
2023/11/28 07:39:33;;;;;;;;;;;4.40;99.90;;;3.43;100.00;100609.91;4169084;28;20340;-77
2023/11/28 07:41:33;;;;;;;;;;;4.40;99.90;;;3.40;100.00;100616.19;4170195;28;19954;-75
2023/11/28 07:43:34;;;;;;;;;;;4.30;99.90;;;3.36;100.00;100614.72;4154446;28;19909;-75
2023/11/28 07:45:36;;;;;;;;;;;4.30;99.90;;;3.31;100.00;100611.63;4168677;28;19923;-75
2023/11/28 07:47:37;;;;;;;;;;;4.30;99.90;;;3.30;100.00;100616.00;4168901;28;19999;-75
2023/11/28 07:49:38;;;;;;;;;;;4.20;99.90;;;3.27;100.00;100621.44;4186289;28;19962;-75
2023/11/28 07:51:39;;;;;;;;;;;4.20;99.90;;;3.26;100.00;100627.59;4185146;28;19912;-75
2023/11/28 07:53:40;;;;;;;;;;;4.20;99.90;;;3.23;100.00;100619.16;4186807;28;19909;-75
2023/11/28 07:55:41;;;;;;;;;;;4.10;99.90;;;3.22;100.00;100627.94;4168962;28;19944;-75
2023/11/28 07:57:42;;;;;;;;;;;4.10;99.90;;;3.21;100.00;100624.50;4175476;28;20299;-75
2023/11/28 07:59:46;;;;;;;;;;;4.10;99.90;;;3.24;100.00;100631.25;4135981;28;19910;-75
2023/11/28 08:01:47;;;;;;;;;;;4.10;99.90;;;3.24;100.00;100637.31;4152820;28;19946;-75
2023/11/28 08:03:47;;;;;;;;;;;4.10;99.90;;;3.26;100.00;100640.63;4158838;28;19909;-75
2023/11/28 08:05:48;;;;;;;;;;;4.10;99.90;;;3.22;100.00;100641.81;4186347;28;19920;-75
2023/11/28 08:07:50;;;;;;;;;;;4.10;99.90;;;3.26;100.00;100642.41;4168671;28;19909;-75
2023/11/28 08:09:51;;;;;;;;;;;4.10;99.90;;;3.26;100.00;100650.22;4168609;28;19952;-75
2023/11/28 08:11:51;;;;;;;;;;;4.10;99.90;;;3.25;100.00;100643.38;4186462;28;19913;-75
2023/11/28 08:13:53;;;;;;;;;;;4.10;99.90;;;3.21;100.00;100644.53;4176454;28;19909;-75
2023/11/28 08:15:55;;;;;;;;;;;4.10;99.90;;;3.19;100.00;100647.25;4152166;28;19910;-75
2023/11/28 08:17:56;;;;;;;;;;;4.10;99.90;;;3.20;100.00;100659.31;4169714;28;19909;-75
2023/11/28 08:19:58;;;;;;;;;;;4.10;99.90;;;3.23;100.00;100658.25;4169556;28;19916;-75
2023/11/28 08:21:58;;;;;;;;;;;4.10;99.90;;;3.24;100.00;100662.53;4169646;28;20003;-75
2023/11/28 08:23:59;;;;;;;;;;;4.10;99.90;;;3.28;100.00;100671.81;4160783;28;19951;-75
2023/11/28 08:26:00;;;;;;;;;;;4.10;99.90;;;3.28;100.00;100667.44;4186250;28;19912;-75
2023/11/28 08:28:01;;;;;;;;;;;4.20;99.90;;;3.36;100.00;100682.50;4168514;28;19909;-75
2023/11/28 08:30:02;;;;;;;;;;;4.20;99.90;;;3.39;100.00;100684.06;4185999;28;19913;-75
2023/11/28 08:32:03;;;;;;;;;;;4.30;99.90;;;3.42;100.00;100684.66;4185913;28;19909;-75
2023/11/28 08:34:03;;;;;;;;;;;4.30;99.90;;;3.44;100.00;100684.53;4156972;28;19909;-75
2023/11/28 08:36:05;;;;;;;;;;;4.30;99.90;;;3.45;100.00;100684.44;4169558;28;19915;-75
2023/11/28 08:38:06;;;;;;;;;;;4.40;99.90;;;3.47;100.00;100684.31;4168272;28;19935;-75
2023/11/28 08:40:07;;;;;;;;;;;4.40;99.90;;;3.55;100.00;100679.41;4151882;28;19913;-75
2023/11/28 08:42:08;;;;;;;;;;;4.40;99.90;;;3.59;100.00;100686.03;4169329;28;19917;-75
2023/11/28 08:44:09;;;;;;;;;;;4.50;99.90;;;3.64;100.00;100684.78;4169695;28;19913;-75
2023/11/28 08:46:14;;;;;;;;;;;4.60;99.90;;;3.70;100.00;100686.91;4168116;28;19917;-75
2023/11/28 08:48:14;;;;;;;;;;;4.60;99.90;;;3.74;100.00;100685.75;4168511;28;19954;-75
2023/11/28 08:50:15;;;;;;;;;;;4.70;99.90;;;3.83;100.00;100692.03;4168153;28;20319;-75
2023/11/28 08:52:17;;;;;;;;;;;4.70;99.90;;;3.87;100.00;100694.31;4166088;28;19909;-75
2023/11/28 08:54:18;;;;;;;;;;;4.80;99.90;;;3.92;100.00;100693.97;4172812;28;19913;-75
2023/11/28 08:56:18;;;;;;;;;;;4.80;99.90;;;3.98;100.00;100695.28;4169156;28;19966;-75
2023/11/28 08:58:19;;;;;;;;;;;4.90;99.90;;;4.08;100.00;100696.25;4167997;28;19917;-75
2023/11/28 09:00:20;;;;;;;;;;;5.00;99.90;;;4.12;100.00;100698.50;4169271;28;19915;-75
2023/11/28 09:02:21;;;;;;;;;;;5.00;99.90;;;4.10;100.00;100691.75;4169042;28;19909;-75
2023/11/28 09:04:22;;;;;;;;;;;5.00;99.90;;;4.19;100.00;100696.28;4180732;28;19908;-75
2023/11/28 09:06:23;;;;;;;;;;;5.10;99.90;;;4.30;100.00;100699.72;4167830;28;20291;-75
2023/11/28 09:08:23;;;;;;;;;;;5.20;99.90;;;4.43;100.00;100703.09;4185554;28;19909;-75
2023/11/28 09:10:24;;;;;;;;;;;5.30;99.90;;;4.62;100.00;100705.13;4167938;28;19960;-75
2023/11/28 09:12:25;;;;;;;;;;;5.50;99.90;;;4.83;100.00;100702.59;4185550;28;19909;-75
2023/11/28 09:14:26;;;;;;;;;;;5.60;99.90;;;4.95;100.00;100702.47;4171859;28;19956;-75